sensor_id;sensor_type;location;lat;lon;timestamp;pressure;altitude;pressure_sealevel;temperature;humidity
64388;BME280;50709;52.648;4.764;2022-12-18T00:00:59;102849.53;;;0.64;80.37
64388;BME280;50709;52.648;4.764;2022-12-18T00:03:25;102846.91;;;0.87;82.56
64388;BME280;50709;52.648;4.764;2022-12-18T00:05:51;102843.09;;;0.81;78.18
64388;BME280;50709;52.648;4.764;2022-12-18T00:08:17;102851.44;;;0.21;80.91
64388;BME280;50709;52.648;4.764;2022-12-18T00:10:42;102855.78;;;0.22;82.37
64388;BME280;50709;52.648;4.764;2022-12-18T00:13:08;102855.69;;;-0.02;83.45
64388;BME280;50709;52.648;4.764;2022-12-18T00:15:34;102854.06;;;0.91;84.75
64388;BME280;50709;52.648;4.764;2022-12-18T00:18:00;102857.75;;;0.37;83.83
64388;BME280;50709;52.648;4.764;2022-12-18T00:20:25;102850.50;;;0.43;84.18
64388;BME280;50709;52.648;4.764;2022-12-18T00:22:51;102845.72;;;0.47;82.01
64388;BME280;50709;52.648;4.764;2022-12-18T00:25:17;102850.00;;;0.25;83.89
64388;BME280;50709;52.648;4.764;2022-12-18T00:27:42;102848.59;;;0.40;83.07
64388;BME280;50709;52.648;4.764;2022-12-18T00:30:07;102852.44;;;0.57;83.94
64388;BME280;50709;52.648;4.764;2022-12-18T00:32:53;102855.72;;;0.32;84.06
64388;BME280;50709;52.648;4.764;2022-12-18T00:35:38;102857.50;;;0.33;85.08
64388;BME280;50709;52.648;4.764;2022-12-18T00:38:04;102860.63;;;0.75;85.24
64388;BME280;50709;52.648;4.764;2022-12-18T00:40:31;102858.13;;;0.53;83.98
64388;BME280;50709;52.648;4.764;2022-12-18T00:42:56;102845.69;;;0.13;79.59
64388;BME280;50709;52.648;4.764;2022-12-18T00:45:24;102840.41;;;0.80;83.44
64388;BME280;50709;52.648;4.764;2022-12-18T00:47:50;102841.78;;;0.41;83.33
64388;BME280;50709;52.648;4.764;2022-12-18T00:50:15;102834.13;;;-0.26;80.88
64388;BME280;50709;52.648;4.764;2022-12-18T00:52:42;102835.72;;;0.28;82.03
64388;BME280;50709;52.648;4.764;2022-12-18T00:55:07;102828.28;;;0.43;82.44
64388;BME280;50709;52.648;4.764;2022-12-18T00:57:33;102833.28;;;0.08;81.24
64388;BME280;50709;52.648;4.764;2022-12-18T00:59:58;102840.72;;;0.61;83.58
64388;BME280;50709;52.648;4.764;2022-12-18T01:02:24;102851.09;;;0.74;83.54
64388;BME280;50709;52.648;4.764;2022-12-18T01:04:56;102842.75;;;0.89;84.20
64388;BME280;50709;52.648;4.764;2022-12-18T01:07:41;102844.69;;;0.11;80.79
64388;BME280;50709;52.648;4.764;2022-12-18T01:10:06;102837.06;;;-0.21;80.56
64388;BME280;50709;52.648;4.764;2022-12-18T01:12:32;102836.66;;;-0.38;81.91
64388;BME280;50709;52.648;4.764;2022-12-18T01:14:59;102843.38;;;-0.28;81.49
64388;BME280;50709;52.648;4.764;2022-12-18T01:17:24;102847.78;;;-0.15;83.14
64388;BME280;50709;52.648;4.764;2022-12-18T01:19:49;102850.97;;;-0.07;82.98
64388;BME280;50709;52.648;4.764;2022-12-18T01:22:16;102855.34;;;-0.06;80.75
64388;BME280;50709;52.648;4.764;2022-12-18T01:24:41;102860.38;;;0.60;84.87
64388;BME280;50709;52.648;4.764;2022-12-18T01:27:07;102856.16;;;0.84;85.73
64388;BME280;50709;52.648;4.764;2022-12-18T01:29:32;102857.72;;;0.25;84.13
64388;BME280;50709;52.648;4.764;2022-12-18T01:31:57;102862.78;;;0.93;86.33
64388;BME280;50709;52.648;4.764;2022-12-18T01:34:23;102855.34;;;0.50;84.48
64388;BME280;50709;52.648;4.764;2022-12-18T01:36:49;102859.31;;;0.35;84.09
64388;BME280;50709;52.648;4.764;2022-12-18T01:39:17;102855.69;;;0.21;82.44
64388;BME280;50709;52.648;4.764;2022-12-18T01:41:42;102863.03;;;0.16;84.24
64388;BME280;50709;52.648;4.764;2022-12-18T01:47:10;102879.97;;;0.70;85.97
64388;BME280;50709;52.648;4.764;2022-12-18T01:49:39;102878.03;;;-0.01;83.94
64388;BME280;50709;52.648;4.764;2022-12-18T01:52:04;102884.66;;;0.30;85.20
64388;BME280;50709;52.648;4.764;2022-12-18T01:54:31;102890.94;;;0.68;85.96
64388;BME280;50709;52.648;4.764;2022-12-18T01:56:56;102892.13;;;0.27;83.56
64388;BME280;50709;52.648;4.764;2022-12-18T02:00:04;102884.00;;;0.66;84.37
64388;BME280;50709;52.648;4.764;2022-12-18T02:02:47;102895.69;;;1.09;82.08
64388;BME280;50709;52.648;4.764;2022-12-18T02:05:15;102888.13;;;0.30;81.91
64388;BME280;50709;52.648;4.764;2022-12-18T02:10:34;102895.66;;;0.39;84.69
64388;BME280;50709;52.648;4.764;2022-12-18T02:18:56;102896.91;;;-0.55;80.03
64388;BME280;50709;52.648;4.764;2022-12-18T02:24:34;102889.16;;;-0.12;84.18
64388;BME280;50709;52.648;4.764;2022-12-18T02:27:04;102881.38;;;-0.24;83.08
64388;BME280;50709;52.648;4.764;2022-12-18T02:29:52;102878.19;;;-0.31;82.56
64388;BME280;50709;52.648;4.764;2022-12-18T02:32:30;102875.22;;;-0.58;82.64
64388;BME280;50709;52.648;4.764;2022-12-18T02:35:20;102859.47;;;-0.41;82.64
64388;BME280;50709;52.648;4.764;2022-12-18T02:37:47;102861.91;;;-0.32;84.84
64388;BME280;50709;52.648;4.764;2022-12-18T02:40:13;102860.06;;;-0.55;83.11
64388;BME280;50709;52.648;4.764;2022-12-18T02:42:41;102861.63;;;-0.03;82.71
64388;BME280;50709;52.648;4.764;2022-12-18T02:45:08;102865.34;;;-0.64;83.96
64388;BME280;50709;52.648;4.764;2022-12-18T02:47:36;102854.91;;;-0.01;85.35
64388;BME280;50709;52.648;4.764;2022-12-18T02:52:42;102862.56;;;-0.67;82.12
64388;BME280;50709;52.648;4.764;2022-12-18T02:55:39;102854.63;;;-0.80;81.70
64388;BME280;50709;52.648;4.764;2022-12-18T02:58:19;102851.53;;;0.23;85.28
64388;BME280;50709;52.648;4.764;2022-12-18T03:00:51;102861.94;;;-0.85;82.98
64388;BME280;50709;52.648;4.764;2022-12-18T03:03:24;102859.13;;;-0.45;85.17
64388;BME280;50709;52.648;4.764;2022-12-18T03:05:51;102856.47;;;-0.25;85.46
64388;BME280;50709;52.648;4.764;2022-12-18T03:08:30;102854.63;;;-0.15;85.54
64388;BME280;50709;52.648;4.764;2022-12-18T03:10:58;102847.97;;;-0.02;84.84
64388;BME280;50709;52.648;4.764;2022-12-18T03:13:27;102842.16;;;-0.76;81.81
64388;BME280;50709;52.648;4.764;2022-12-18T03:15:54;102839.22;;;-0.70;81.48
64388;BME280;50709;52.648;4.764;2022-12-18T03:18:25;102837.75;;;-0.34;85.58
64388;BME280;50709;52.648;4.764;2022-12-18T03:21:02;102830.25;;;0.02;85.61
64388;BME280;50709;52.648;4.764;2022-12-18T03:23:31;102829.13;;;-0.24;84.25
64388;BME280;50709;52.648;4.764;2022-12-18T03:26:01;102836.75;;;0.08;86.04
64388;BME280;50709;52.648;4.764;2022-12-18T03:28:47;102831.47;;;-0.60;80.74
64388;BME280;50709;52.648;4.764;2022-12-18T03:31:15;102834.41;;;-0.11;84.46
64388;BME280;50709;52.648;4.764;2022-12-18T03:33:46;102833.53;;;-0.11;82.62
64388;BME280;50709;52.648;4.764;2022-12-18T03:36:14;102833.53;;;-0.33;82.62
64388;BME280;50709;52.648;4.764;2022-12-18T03:38:41;102841.47;;;-0.53;82.13
64388;BME280;50709;52.648;4.764;2022-12-18T03:41:31;102833.34;;;-0.25;82.63
64388;BME280;50709;52.648;4.764;2022-12-18T03:46:53;102841.66;;;-1.45;80.84
64388;BME280;50709;52.648;4.764;2022-12-18T03:49:33;102840.41;;;-0.44;84.03
64388;BME280;50709;52.648;4.764;2022-12-18T03:52:27;102836.16;;;-0.76;81.61
64388;BME280;50709;52.648;4.764;2022-12-18T03:54:58;102836.47;;;-0.61;82.51
64388;BME280;50709;52.648;4.764;2022-12-18T03:58:03;102821.25;;;-0.70;81.85
64388;BME280;50709;52.648;4.764;2022-12-18T04:00:49;102820.34;;;-0.71;83.05
64388;BME280;50709;52.648;4.764;2022-12-18T04:03:17;102812.59;;;-0.93;83.67
64388;BME280;50709;52.648;4.764;2022-12-18T04:05:45;102818.66;;;-1.03;83.16
64388;BME280;50709;52.648;4.764;2022-12-18T04:08:31;102827.81;;;-1.37;81.71
64388;BME280;50709;52.648;4.764;2022-12-18T04:10:59;102817.16;;;-1.31;82.48
64388;BME280;50709;52.648;4.764;2022-12-18T04:13:27;102815.13;;;-1.25;82.18
64388;BME280;50709;52.648;4.764;2022-12-18T04:15:53;102805.31;;;-0.66;85.89
64388;BME280;50709;52.648;4.764;2022-12-18T04:18:20;102808.69;;;-0.23;85.53
64388;BME280;50709;52.648;4.764;2022-12-18T04:20:45;102810.13;;;-0.48;85.26
64388;BME280;50709;52.648;4.764;2022-12-18T04:23:30;102819.88;;;-0.77;83.81
64388;BME280;50709;52.648;4.764;2022-12-18T04:25:58;102825.38;;;-0.82;83.91
64388;BME280;50709;52.648;4.764;2022-12-18T04:28:25;102830.13;;;-0.77;83.29
64388;BME280;50709;52.648;4.764;2022-12-18T04:30:50;102832.25;;;-1.04;83.94
64388;BME280;50709;52.648;4.764;2022-12-18T04:33:16;102826.97;;;-0.08;86.20
64388;BME280;50709;52.648;4.764;2022-12-18T04:36:01;102836.34;;;-0.53;84.50
64388;BME280;50709;52.648;4.764;2022-12-18T04:38:28;102835.06;;;-0.36;85.31
64388;BME280;50709;52.648;4.764;2022-12-18T04:40:54;102841.31;;;0.35;87.20
64388;BME280;50709;52.648;4.764;2022-12-18T04:43:20;102842.56;;;-0.49;83.88
64388;BME280;50709;52.648;4.764;2022-12-18T04:45:45;102840.41;;;-0.22;85.41
64388;BME280;50709;52.648;4.764;2022-12-18T04:48:11;102848.00;;;-0.56;81.79
64388;BME280;50709;52.648;4.764;2022-12-18T04:51:18;102856.84;;;-0.20;84.64
64388;BME280;50709;52.648;4.764;2022-12-18T04:53:44;102864.09;;;-0.37;84.62
64388;BME280;50709;52.648;4.764;2022-12-18T04:56:10;102866.81;;;-0.78;81.84
64388;BME280;50709;52.648;4.764;2022-12-18T04:58:57;102863.84;;;-0.72;82.58
64388;BME280;50709;52.648;4.764;2022-12-18T05:01:42;102860.72;;;-1.00;84.33
64388;BME280;50709;52.648;4.764;2022-12-18T05:04:09;102863.41;;;-0.56;85.02
64388;BME280;50709;52.648;4.764;2022-12-18T05:06:34;102868.63;;;-0.87;83.56
64388;BME280;50709;52.648;4.764;2022-12-18T05:09:00;102864.13;;;-0.79;82.59
64388;BME280;50709;52.648;4.764;2022-12-18T05:11:28;102858.63;;;-0.84;82.47
64388;BME280;50709;52.648;4.764;2022-12-18T05:14:13;102860.47;;;-1.04;85.14
64388;BME280;50709;52.648;4.764;2022-12-18T05:16:39;102875.09;;;-1.44;81.16
64388;BME280;50709;52.648;4.764;2022-12-18T05:19:06;102872.09;;;-0.44;84.81
64388;BME280;50709;52.648;4.764;2022-12-18T05:21:31;102865.59;;;-0.61;82.59
64388;BME280;50709;52.648;4.764;2022-12-18T05:23:57;102867.66;;;-1.10;79.32
64388;BME280;50709;52.648;4.764;2022-12-18T05:26:23;102872.06;;;-0.66;83.91
64388;BME280;50709;52.648;4.764;2022-12-18T05:29:08;102870.53;;;-0.74;82.26
64388;BME280;50709;52.648;4.764;2022-12-18T05:31:37;102855.84;;;-0.65;82.05
64388;BME280;50709;52.648;4.764;2022-12-18T05:34:03;102860.59;;;-1.12;81.65
64388;BME280;50709;52.648;4.764;2022-12-18T05:36:30;102856.91;;;-1.57;80.37
64388;BME280;50709;52.648;4.764;2022-12-18T05:39:18;102854.25;;;-0.85;81.61
64388;BME280;50709;52.648;4.764;2022-12-18T05:41:43;102847.16;;;-1.41;79.79
64388;BME280;50709;52.648;4.764;2022-12-18T05:44:09;102854.88;;;-0.45;84.53
64388;BME280;50709;52.648;4.764;2022-12-18T05:46:35;102854.78;;;-0.89;82.25
64388;BME280;50709;52.648;4.764;2022-12-18T05:49:02;102853.16;;;-0.66;83.31
64388;BME280;50709;52.648;4.764;2022-12-18T05:51:32;102846.22;;;-0.68;82.86
64388;BME280;50709;52.648;4.764;2022-12-18T05:53:58;102846.91;;;-1.33;79.36
64388;BME280;50709;52.648;4.764;2022-12-18T05:56:45;102824.56;;;-1.24;81.39
64388;BME280;50709;52.648;4.764;2022-12-18T05:59:10;102837.41;;;-1.14;81.59
64388;BME280;50709;52.648;4.764;2022-12-18T06:01:36;102843.56;;;-1.63;82.02
64388;BME280;50709;52.648;4.764;2022-12-18T06:04:04;102842.81;;;-1.31;80.93
64388;BME280;50709;52.648;4.764;2022-12-18T06:06:29;102838.03;;;-1.06;81.10
64388;BME280;50709;52.648;4.764;2022-12-18T06:08:55;102849.47;;;-1.75;80.76
64388;BME280;50709;52.648;4.764;2022-12-18T06:11:24;102846.38;;;-1.91;80.71
64388;BME280;50709;52.648;4.764;2022-12-18T06:13:50;102840.38;;;-1.50;80.29
64388;BME280;50709;52.648;4.764;2022-12-18T06:16:22;102829.34;;;-1.39;81.99
64388;BME280;50709;52.648;4.764;2022-12-18T06:18:50;102835.66;;;-1.56;77.87
64388;BME280;50709;52.648;4.764;2022-12-18T06:21:15;102829.94;;;-1.11;82.97
64388;BME280;50709;52.648;4.764;2022-12-18T06:23:40;102826.47;;;-1.01;81.33
64388;BME280;50709;52.648;4.764;2022-12-18T06:26:08;102822.25;;;-1.00;82.19
64388;BME280;50709;52.648;4.764;2022-12-18T06:28:55;102810.13;;;-1.24;78.51
64388;BME280;50709;52.648;4.764;2022-12-18T06:31:21;102813.13;;;-0.97;81.63
64388;BME280;50709;52.648;4.764;2022-12-18T06:34:27;102810.13;;;-0.48;83.74
64388;BME280;50709;52.648;4.764;2022-12-18T06:36:55;102807.09;;;-0.65;82.09
64388;BME280;50709;52.648;4.764;2022-12-18T06:39:21;102804.00;;;-0.61;79.71
64388;BME280;50709;52.648;4.764;2022-12-18T06:41:47;102794.09;;;-1.42;77.90
64388;BME280;50709;52.648;4.764;2022-12-18T06:44:12;102784.16;;;-1.06;81.17
64388;BME280;50709;52.648;4.764;2022-12-18T06:46:37;102778.53;;;-0.80;80.72
64388;BME280;50709;52.648;4.764;2022-12-18T06:49:05;102776.78;;;-0.81;80.30
64388;BME280;50709;52.648;4.764;2022-12-18T06:51:33;102769.31;;;-0.56;80.43
64388;BME280;50709;52.648;4.764;2022-12-18T06:53:59;102780.13;;;-0.92;78.62
64388;BME280;50709;52.648;4.764;2022-12-18T06:56:25;102779.94;;;-0.73;81.17
64388;BME280;50709;52.648;4.764;2022-12-18T06:59:12;102777.59;;;-1.45;79.09
64388;BME280;50709;52.648;4.764;2022-12-18T07:01:41;102765.75;;;-1.23;78.92
64388;BME280;50709;52.648;4.764;2022-12-18T07:04:30;102763.75;;;-1.78;75.76
64388;BME280;50709;52.648;4.764;2022-12-18T07:07:19;102762.22;;;-1.45;79.00
64388;BME280;50709;52.648;4.764;2022-12-18T07:10:09;102773.47;;;-1.23;79.74
64388;BME280;50709;52.648;4.764;2022-12-18T07:12:55;102764.31;;;-1.19;78.36
64388;BME280;50709;52.648;4.764;2022-12-18T07:15:23;102766.84;;;-0.98;79.18
64388;BME280;50709;52.648;4.764;2022-12-18T07:18:08;102773.50;;;-1.54;77.43
64388;BME280;50709;52.648;4.764;2022-12-18T07:20:53;102759.06;;;-0.78;82.67
64388;BME280;50709;52.648;4.764;2022-12-18T07:23:19;102763.00;;;-1.04;80.97
64388;BME280;50709;52.648;4.764;2022-12-18T07:25:46;102755.72;;;-0.55;81.49
64388;BME280;50709;52.648;4.764;2022-12-18T07:28:11;102754.34;;;-1.26;78.32
64388;BME280;50709;52.648;4.764;2022-12-18T07:30:37;102752.03;;;-0.91;81.89
64388;BME280;50709;52.648;4.764;2022-12-18T07:33:03;102745.25;;;-1.23;76.15
64388;BME280;50709;52.648;4.764;2022-12-18T07:35:28;102735.47;;;-0.84;80.14
64388;BME280;50709;52.648;4.764;2022-12-18T07:38:13;102729.91;;;-0.78;80.11
64388;BME280;50709;52.648;4.764;2022-12-18T07:40:40;102720.50;;;-0.90;76.46
64388;BME280;50709;52.648;4.764;2022-12-18T07:43:06;102715.00;;;-0.28;79.91
64388;BME280;50709;52.648;4.764;2022-12-18T07:45:33;102702.44;;;-0.47;81.21
64388;BME280;50709;52.648;4.764;2022-12-18T07:47:58;102709.09;;;-1.26;74.74
64388;BME280;50709;52.648;4.764;2022-12-18T07:50:43;102707.47;;;-1.36;74.20
64388;BME280;50709;52.648;4.764;2022-12-18T07:53:09;102706.50;;;-0.93;76.70
64388;BME280;50709;52.648;4.764;2022-12-18T07:55:34;102713.16;;;-0.41;78.19
64388;BME280;50709;52.648;4.764;2022-12-18T07:58:01;102713.44;;;-1.14;73.58
64388;BME280;50709;52.648;4.764;2022-12-18T08:00:28;102706.66;;;-0.70;77.87
64388;BME280;50709;52.648;4.764;2022-12-18T08:02:54;102709.09;;;-0.49;78.29
64388;BME280;50709;52.648;4.764;2022-12-18T08:05:20;102708.22;;;-1.04;70.79
64388;BME280;50709;52.648;4.764;2022-12-18T08:08:05;102714.81;;;-1.50;73.63
64388;BME280;50709;52.648;4.764;2022-12-18T08:10:30;102725.13;;;-0.63;79.74
64388;BME280;50709;52.648;4.764;2022-12-18T08:12:57;102729.06;;;-1.22;75.97
64388;BME280;50709;52.648;4.764;2022-12-18T08:15:44;102728.00;;;-1.13;74.89
64388;BME280;50709;52.648;4.764;2022-12-18T08:18:29;102729.34;;;-0.64;78.72
64388;BME280;50709;52.648;4.764;2022-12-18T08:20:55;102736.47;;;-1.57;73.43
64388;BME280;50709;52.648;4.764;2022-12-18T08:23:20;102749.22;;;-1.26;74.57
64388;BME280;50709;52.648;4.764;2022-12-18T08:25:46;102749.13;;;-0.95;74.16
64388;BME280;50709;52.648;4.764;2022-12-18T08:28:11;102756.16;;;-1.25;72.78
64388;BME280;50709;52.648;4.764;2022-12-18T08:30:37;102754.91;;;-0.76;75.39
64388;BME280;50709;52.648;4.764;2022-12-18T08:33:02;102753.59;;;-0.93;76.20
64388;BME280;50709;52.648;4.764;2022-12-18T08:35:27;102746.91;;;-1.23;72.88
64388;BME280;50709;52.648;4.764;2022-12-18T08:37:53;102739.69;;;-0.74;75.29
64388;BME280;50709;52.648;4.764;2022-12-18T08:40:18;102736.78;;;-0.23;79.50
64388;BME280;50709;52.648;4.764;2022-12-18T08:42:43;102709.59;;;-1.20;75.02
64388;BME280;50709;52.648;4.764;2022-12-18T08:45:27;102712.00;;;-1.54;74.18
64388;BME280;50709;52.648;4.764;2022-12-18T08:47:52;102718.69;;;-1.23;75.43
64388;BME280;50709;52.648;4.764;2022-12-18T08:50:18;102724.63;;;-1.34;74.35
64388;BME280;50709;52.648;4.764;2022-12-18T08:52:44;102723.50;;;-1.06;77.08
64388;BME280;50709;52.648;4.764;2022-12-18T08:55:09;102723.81;;;-1.23;75.35
64388;BME280;50709;52.648;4.764;2022-12-18T08:57:35;102720.31;;;-1.13;77.55
64388;BME280;50709;52.648;4.764;2022-12-18T09:00:00;102719.06;;;-0.86;77.66
64388;BME280;50709;52.648;4.764;2022-12-18T09:02:25;102718.91;;;-1.10;75.25
64388;BME280;50709;52.648;4.764;2022-12-18T09:04:50;102717.50;;;-1.06;74.75
64388;BME280;50709;52.648;4.764;2022-12-18T09:07:16;102717.13;;;-0.56;77.33
64388;BME280;50709;52.648;4.764;2022-12-18T09:09:41;102714.69;;;-1.09;74.23
64388;BME280;50709;52.648;4.764;2022-12-18T09:12:06;102722.88;;;-1.13;73.11
64388;BME280;50709;52.648;4.764;2022-12-18T09:14:32;102728.69;;;-0.61;74.62
64388;BME280;50709;52.648;4.764;2022-12-18T09:16:57;102717.31;;;-0.97;76.40
64388;BME280;50709;52.648;4.764;2022-12-18T09:19:22;102720.94;;;-1.06;72.48
64388;BME280;50709;52.648;4.764;2022-12-18T09:21:47;102712.81;;;-1.32;74.87
64388;BME280;50709;52.648;4.764;2022-12-18T09:24:13;102699.97;;;-1.22;72.79
64388;BME280;50709;52.648;4.764;2022-12-18T09:26:38;102683.03;;;-0.88;76.64
64388;BME280;50709;52.648;4.764;2022-12-18T09:29:04;102695.50;;;-0.92;72.96
64388;BME280;50709;52.648;4.764;2022-12-18T09:31:29;102692.13;;;-0.81;73.96
64388;BME280;50709;52.648;4.764;2022-12-18T09:33:55;102685.75;;;-0.96;73.53
64388;BME280;50709;52.648;4.764;2022-12-18T09:36:21;102684.06;;;-1.18;74.60
64388;BME280;50709;52.648;4.764;2022-12-18T09:38:46;102677.72;;;-0.79;74.10
64388;BME280;50709;52.648;4.764;2022-12-18T09:43:56;102670.28;;;-1.30;74.11
64388;BME280;50709;52.648;4.764;2022-12-18T09:46:36;102667.00;;;-1.17;75.94
64388;BME280;50709;52.648;4.764;2022-12-18T09:49:04;102671.72;;;-0.79;77.34
64388;BME280;50709;52.648;4.764;2022-12-18T09:51:39;102669.72;;;-0.94;74.94
64388;BME280;50709;52.648;4.764;2022-12-18T09:54:11;102664.13;;;-0.78;75.13
64388;BME280;50709;52.648;4.764;2022-12-18T09:56:39;102666.28;;;-0.94;76.34
64388;BME280;50709;52.648;4.764;2022-12-18T09:59:05;102671.16;;;-0.75;75.37
64388;BME280;50709;52.648;4.764;2022-12-18T10:01:31;102668.97;;;-0.37;76.64
64388;BME280;50709;52.648;4.764;2022-12-18T10:03:56;102667.34;;;-0.24;77.17
64388;BME280;50709;52.648;4.764;2022-12-18T10:06:45;102666.81;;;-0.20;76.44
64388;BME280;50709;52.648;4.764;2022-12-18T10:12:00;102658.59;;;0.31;76.37
64388;BME280;50709;52.648;4.764;2022-12-18T10:17:02;102657.88;;;0.93;79.85
64388;BME280;50709;52.648;4.764;2022-12-18T10:19:39;102654.44;;;0.57;77.72
64388;BME280;50709;52.648;4.764;2022-12-18T10:27:12;102652.41;;;0.77;75.25
64388;BME280;50709;52.648;4.764;2022-12-18T10:29:39;102656.00;;;0.55;76.23
64388;BME280;50709;52.648;4.764;2022-12-18T10:32:04;102674.66;;;0.17;72.61
64388;BME280;50709;52.648;4.764;2022-12-18T10:34:29;102663.53;;;0.28;74.66
64388;BME280;50709;52.648;4.764;2022-12-18T10:36:55;102651.81;;;0.81;77.97
64388;BME280;50709;52.648;4.764;2022-12-18T10:39:21;102642.25;;;0.43;72.49
64388;BME280;50709;52.648;4.764;2022-12-18T10:41:51;102641.38;;;0.42;73.37
64388;BME280;50709;52.648;4.764;2022-12-18T10:44:23;102640.72;;;0.57;76.01
64388;BME280;50709;52.648;4.764;2022-12-18T10:46:50;102640.00;;;0.59;73.82
64388;BME280;50709;52.648;4.764;2022-12-18T10:49:19;102633.66;;;0.30;74.30
64388;BME280;50709;52.648;4.764;2022-12-18T10:51:46;102621.88;;;0.81;75.32
64388;BME280;50709;52.648;4.764;2022-12-18T10:54:18;102620.81;;;0.54;70.73
64388;BME280;50709;52.648;4.764;2022-12-18T10:56:45;102620.06;;;1.68;80.16
64388;BME280;50709;52.648;4.764;2022-12-18T10:59:11;102606.63;;;2.12;81.65
64388;BME280;50709;52.648;4.764;2022-12-18T11:01:53;102610.88;;;1.85;82.42
64388;BME280;50709;52.648;4.764;2022-12-18T11:04:23;102595.81;;;2.18;81.65
64388;BME280;50709;52.648;4.764;2022-12-18T11:07:05;102583.09;;;2.48;80.74
64388;BME280;50709;52.648;4.764;2022-12-18T11:09:31;102590.47;;;2.01;80.94
64388;BME280;50709;52.648;4.764;2022-12-18T11:12:00;102594.38;;;1.70;79.99
64388;BME280;50709;52.648;4.764;2022-12-18T11:14:30;102586.66;;;2.63;85.26
64388;BME280;50709;52.648;4.764;2022-12-18T11:16:57;102587.47;;;2.35;81.27
64388;BME280;50709;52.648;4.764;2022-12-18T11:19:26;102595.53;;;3.10;82.79
64388;BME280;50709;52.648;4.764;2022-12-18T11:21:53;102592.34;;;2.86;81.87
64388;BME280;50709;52.648;4.764;2022-12-18T11:24:29;102589.00;;;2.74;80.07
64388;BME280;50709;52.648;4.764;2022-12-18T11:26:56;102603.31;;;3.25;79.47
64388;BME280;50709;52.648;4.764;2022-12-18T11:29:31;102602.81;;;3.31;72.67
64388;BME280;50709;52.648;4.764;2022-12-18T11:34:37;102568.44;;;3.03;75.38
64388;BME280;50709;52.648;4.764;2022-12-18T11:37:03;102567.88;;;2.38;74.10
64388;BME280;50709;52.648;4.764;2022-12-18T11:39:34;102572.13;;;2.10;75.03
64388;BME280;50709;52.648;4.764;2022-12-18T11:44:54;102574.56;;;2.49;73.49
64388;BME280;50709;52.648;4.764;2022-12-18T11:47:22;102568.94;;;1.61;69.60
64388;BME280;50709;52.648;4.764;2022-12-18T11:49:50;102557.59;;;2.66;76.62
64388;BME280;50709;52.648;4.764;2022-12-18T11:52:21;102549.06;;;1.98;71.94
64388;BME280;50709;52.648;4.764;2022-12-18T11:54:50;102534.41;;;2.52;73.69
64388;BME280;50709;52.648;4.764;2022-12-18T12:00:00;102526.66;;;2.52;74.39
64388;BME280;50709;52.648;4.764;2022-12-18T12:07:53;102517.50;;;2.86;68.76
64388;BME280;50709;52.648;4.764;2022-12-18T12:10:28;102514.38;;;2.77;70.12
64388;BME280;50709;52.648;4.764;2022-12-18T12:15:31;102513.06;;;2.55;71.94
64388;BME280;50709;52.648;4.764;2022-12-18T12:18:19;102507.59;;;3.52;73.68
64388;BME280;50709;52.648;4.764;2022-12-18T12:20:49;102511.97;;;2.10;66.03
64388;BME280;50709;52.648;4.764;2022-12-18T12:23:30;102513.06;;;2.13;67.24
64388;BME280;50709;52.648;4.764;2022-12-18T12:28:44;102507.47;;;3.95;69.58
64388;BME280;50709;52.648;4.764;2022-12-18T12:31:53;102496.56;;;3.25;65.33
64388;BME280;50709;52.648;4.764;2022-12-18T12:39:10;102494.16;;;3.43;67.88
64388;BME280;50709;52.648;4.764;2022-12-18T12:41:37;102481.81;;;4.15;69.81
64388;BME280;50709;52.648;4.764;2022-12-18T12:44:26;102476.50;;;3.65;66.17
64388;BME280;50709;52.648;4.764;2022-12-18T12:46:55;102459.13;;;4.09;69.92
64388;BME280;50709;52.648;4.764;2022-12-18T12:49:21;102456.75;;;3.97;67.92
64388;BME280;50709;52.648;4.764;2022-12-18T12:51:53;102454.59;;;3.44;70.58
64388;BME280;50709;52.648;4.764;2022-12-18T12:54:23;102446.28;;;3.64;69.78
64388;BME280;50709;52.648;4.764;2022-12-18T12:59:40;102434.56;;;3.40;67.26
64388;BME280;50709;52.648;4.764;2022-12-18T13:04:38;102430.50;;;3.28;67.39
64388;BME280;50709;52.648;4.764;2022-12-18T13:07:16;102429.16;;;3.81;66.56
64388;BME280;50709;52.648;4.764;2022-12-18T13:12:28;102415.16;;;3.31;65.03
64388;BME280;50709;52.648;4.764;2022-12-18T13:15:13;102423.94;;;3.96;68.93
64388;BME280;50709;52.648;4.764;2022-12-18T13:17:45;102422.63;;;2.82;65.98
64388;BME280;50709;52.648;4.764;2022-12-18T13:20:11;102415.66;;;2.94;67.32
64388;BME280;50709;52.648;4.764;2022-12-18T13:22:38;102410.16;;;3.34;69.97
64388;BME280;50709;52.648;4.764;2022-12-18T13:25:26;102403.44;;;2.77;69.11
64388;BME280;50709;52.648;4.764;2022-12-18T13:28:23;102400.22;;;3.26;65.09
64388;BME280;50709;52.648;4.764;2022-12-18T13:30:41;102398.81;;;4.10;69.98
64388;BME280;50709;52.648;4.764;2022-12-18T13:45:45;102355.09;;;3.50;67.62
64388;BME280;50709;52.648;4.764;2022-12-18T13:48:16;102353.56;;;3.38;62.89
64388;BME280;50709;52.648;4.764;2022-12-18T13:50:42;102347.25;;;3.80;68.79
64388;BME280;50709;52.648;4.764;2022-12-18T13:53:11;102343.69;;;3.47;65.65
64388;BME280;50709;52.648;4.764;2022-12-18T13:55:43;102341.81;;;4.93;68.42
64388;BME280;50709;52.648;4.764;2022-12-18T13:58:11;102336.56;;;4.57;66.32
64388;BME280;50709;52.648;4.764;2022-12-18T14:00:40;102323.50;;;4.20;63.26
64388;BME280;50709;52.648;4.764;2022-12-18T14:03:15;102327.88;;;4.72;70.30
64388;BME280;50709;52.648;4.764;2022-12-18T14:05:41;102327.72;;;3.85;65.87
64388;BME280;50709;52.648;4.764;2022-12-18T14:08:15;102337.25;;;3.86;68.83
64388;BME280;50709;52.648;4.764;2022-12-18T14:11:01;102328.88;;;4.58;68.65
64388;BME280;50709;52.648;4.764;2022-12-18T14:13:31;102327.38;;;4.98;66.04
64388;BME280;50709;52.648;4.764;2022-12-18T14:15:57;102321.16;;;4.09;65.04
64388;BME280;50709;52.648;4.764;2022-12-18T14:18:26;102307.91;;;3.22;63.98
64388;BME280;50709;52.648;4.764;2022-12-18T14:20:55;102313.03;;;4.01;65.82
64388;BME280;50709;52.648;4.764;2022-12-18T14:25:59;102315.94;;;3.11;64.23
64388;BME280;50709;52.648;4.764;2022-12-18T14:28:25;102301.41;;;4.09;68.84
64388;BME280;50709;52.648;4.764;2022-12-18T14:30:51;102296.94;;;4.07;69.92
64388;BME280;50709;52.648;4.764;2022-12-18T14:35:57;102286.03;;;2.25;63.42